createdAt,value
2023-04-24T00:01:40.552Z,14.87
2023-04-24T00:04:17.192Z,14.87
2023-04-24T00:06:58.681Z,14.86
2023-04-24T00:09:32.547Z,14.84
2023-04-24T00:12:08.326Z,14.84
2023-04-24T00:14:39.819Z,14.84
2023-04-24T00:17:20.128Z,14.84
2023-04-24T00:20:02.527Z,14.83
2023-04-24T00:22:36.413Z,14.82
2023-04-24T00:25:14.294Z,14.80
2023-04-24T00:27:52.446Z,14.78
2023-04-24T00:30:26.310Z,14.78
2023-04-24T00:33:06.976Z,14.78
2023-04-24T00:35:45.062Z,14.78
2023-04-24T00:38:19.737Z,14.76
2023-04-24T00:41:08.728Z,14.74
2023-04-24T00:43:42.945Z,14.75
2023-04-24T00:46:16.461Z,14.75
2023-04-24T00:48:55.975Z,14.75
2023-04-24T00:51:33.394Z,14.74
2023-04-24T00:54:10.965Z,14.74
2023-04-24T00:56:44.254Z,14.73
2023-04-24T00:59:18.558Z,14.72
2023-04-24T01:01:52.441Z,14.71
2023-04-24T01:04:29.995Z,14.68
2023-04-24T01:07:03.384Z,14.69
2023-04-24T01:09:42.671Z,14.71
2023-04-24T01:12:18.523Z,14.73
2023-04-24T01:15:03.009Z,14.73
2023-04-24T01:17:39.865Z,14.72
2023-04-24T01:20:17.798Z,14.72
2023-04-24T01:22:53.805Z,14.72
2023-04-24T01:25:41.221Z,14.71
2023-04-24T01:28:17.828Z,14.68
2023-04-24T01:30:52.315Z,14.69
2023-04-24T01:33:30.542Z,14.69
2023-04-24T01:36:10.556Z,14.67
2023-04-24T01:38:47.858Z,14.66
2023-04-24T01:41:20.826Z,14.66
2023-04-24T01:43:53.550Z,14.65
2023-04-24T01:46:28.968Z,14.65
2023-04-24T01:49:04.168Z,14.66
2023-04-24T01:51:45.136Z,14.64
2023-04-24T01:54:21.518Z,14.60
2023-04-24T01:56:56.891Z,14.57
2023-04-24T01:59:31.685Z,14.57
2023-04-24T02:02:06.788Z,14.55
2023-04-24T02:04:44.775Z,14.55
2023-04-24T02:07:22.138Z,14.52
2023-04-24T02:09:57.678Z,14.51
2023-04-24T02:12:31.785Z,14.51
2023-04-24T02:15:04.722Z,14.50
2023-04-24T02:17:43.114Z,14.50
2023-04-24T02:20:21.867Z,14.52
2023-04-24T02:23:02.516Z,14.51
2023-04-24T02:25:37.592Z,14.48
2023-04-24T02:28:12.029Z,14.46
2023-04-24T02:30:47.969Z,14.44
2023-04-24T02:33:20.958Z,14.43
2023-04-24T02:35:53.642Z,14.43
2023-04-24T02:38:27.906Z,14.42
2023-04-24T02:41:03.646Z,14.39
2023-04-24T02:43:44.782Z,14.37
2023-04-24T02:46:19.009Z,14.36
2023-04-24T02:48:51.711Z,14.33
2023-04-24T02:51:28.158Z,14.31
2023-04-24T02:54:02.554Z,14.32
2023-04-24T02:56:37.565Z,14.33
2023-04-24T02:59:11.053Z,14.33
2023-04-24T03:02:07.806Z,14.33
2023-04-24T03:05:00.504Z,14.28
2023-04-24T03:07:38.085Z,14.27
2023-04-24T03:10:17.759Z,14.27
2023-04-24T03:12:49.607Z,14.25
2023-04-24T03:15:25.712Z,14.27
2023-04-24T03:17:59.981Z,14.26
2023-04-24T03:20:39.691Z,14.27
2023-04-24T03:23:14.912Z,14.25
2023-04-24T03:25:52.450Z,14.23
2023-04-24T03:28:28.255Z,14.22
2023-04-24T03:31:07.980Z,14.20
2023-04-24T03:33:42.117Z,14.21
2023-04-24T03:36:18.627Z,14.22
2023-04-24T03:38:52.332Z,14.19
2023-04-24T03:41:36.057Z,14.18
2023-04-24T03:44:19.680Z,14.18
2023-04-24T03:46:56.338Z,14.17
2023-04-24T03:49:34.693Z,14.17
2023-04-24T03:52:07.131Z,14.19
2023-04-24T03:54:46.655Z,14.22
2023-04-24T03:57:21.436Z,14.22
2023-04-24T04:00:05.654Z,14.23
2023-04-24T04:02:50.679Z,14.23
2023-04-24T04:05:40.564Z,14.22
2023-04-24T04:08:14.377Z,14.25
2023-04-24T04:10:49.038Z,14.26
2023-04-24T04:13:42.242Z,14.27
2023-04-24T04:16:14.216Z,14.27
2023-04-24T04:18:48.003Z,14.30
2023-04-24T04:21:21.758Z,14.31
2023-04-24T04:23:58.089Z,14.32
2023-04-24T04:26:38.234Z,14.33
2023-04-24T04:29:14.272Z,14.35
2023-04-24T04:31:49.190Z,14.36
2023-04-24T04:34:22.026Z,14.37
2023-04-24T04:37:01.474Z,14.39
2023-04-24T04:39:54.105Z,14.40
2023-04-24T04:42:30.606Z,14.44
2023-04-24T04:45:03.283Z,14.49
2023-04-24T04:47:42.777Z,14.53
2023-04-24T04:50:15.043Z,14.58
2023-04-24T04:52:48.856Z,14.62
2023-04-24T04:55:29.584Z,14.64
2023-04-24T04:58:46.710Z,14.64
2023-04-24T05:01:23.854Z,14.65
2023-04-24T05:03:57.968Z,14.67
2023-04-24T05:06:32.228Z,14.71
2023-04-24T05:09:06.115Z,14.75
2023-04-24T05:11:45.650Z,14.81
2023-04-24T05:14:19.718Z,14.86
2023-04-24T05:16:55.291Z,14.90
2023-04-24T05:19:33.500Z,14.92
2023-04-24T05:22:08.772Z,14.95
2023-04-24T05:24:43.150Z,14.96
2023-04-24T05:27:30.242Z,15.00
2023-04-24T05:30:19.631Z,15.02
2023-04-24T05:32:52.806Z,15.03
2023-04-24T05:35:25.082Z,15.03
2023-04-24T05:38:00.702Z,15.09
2023-04-24T05:40:32.502Z,15.14
2023-04-24T05:43:07.556Z,15.19
2023-04-24T05:45:44.968Z,15.24
2023-04-24T05:48:23.736Z,15.26
2023-04-24T05:50:57.827Z,15.26
2023-04-24T05:53:36.096Z,15.29
2023-04-24T05:56:09.682Z,15.33
2023-04-24T05:58:45.217Z,15.39
2023-04-24T06:01:20.821Z,15.44
2023-04-24T06:04:03.273Z,15.49
2023-04-24T06:06:40.940Z,15.57
2023-04-24T06:09:13.310Z,15.65
2023-04-24T06:11:54.068Z,15.75
2023-04-24T06:14:29.041Z,15.85
2023-04-24T06:17:37.687Z,15.95
2023-04-24T06:20:16.167Z,16.07
2023-04-24T06:23:04.238Z,16.17
2023-04-24T06:25:40.424Z,16.24
2023-04-24T06:28:17.414Z,16.31
2023-04-24T06:30:51.714Z,16.40
2023-04-24T06:33:30.166Z,16.47
2023-04-24T06:36:13.334Z,16.50
2023-04-24T06:38:48.773Z,16.61
2023-04-24T06:41:23.605Z,16.62
2023-04-24T06:44:09.737Z,16.64
2023-04-24T06:46:44.636Z,16.68
2023-04-24T06:49:33.889Z,16.73
2023-04-24T06:52:07.879Z,16.78
2023-04-24T06:54:39.989Z,16.84
2023-04-24T06:57:18.010Z,16.86
2023-04-24T06:59:53.148Z,16.89
2023-04-24T07:02:29.234Z,16.96
2023-04-24T07:05:05.519Z,17.00
2023-04-24T07:07:42.097Z,17.05
2023-04-24T07:10:18.516Z,17.05
2023-04-24T07:12:52.658Z,17.06
2023-04-24T07:15:26.034Z,17.12
2023-04-24T07:18:04.050Z,17.17
2023-04-24T07:20:38.448Z,17.22
2023-04-24T07:23:13.835Z,17.30
2023-04-24T07:25:47.276Z,17.41
2023-04-24T07:28:20.954Z,17.51
2023-04-24T07:30:57.428Z,17.57
2023-04-24T07:33:28.369Z,17.57
2023-04-24T07:36:02.481Z,17.59
2023-04-24T07:38:36.115Z,17.70
2023-04-24T07:41:12.096Z,17.78
2023-04-24T07:43:49.191Z,17.89
2023-04-24T07:46:27.574Z,17.98
2023-04-24T07:49:12.304Z,18.01
2023-04-24T07:51:48.339Z,18.10
2023-04-24T07:54:24.697Z,18.21
2023-04-24T07:56:58.749Z,18.28
2023-04-24T07:59:33.458Z,18.34
2023-04-24T08:02:08.958Z,18.43
2023-04-24T08:04:43.158Z,18.50
2023-04-24T08:07:17.523Z,18.50
2023-04-24T08:09:50.761Z,18.48
2023-04-24T08:12:27.246Z,18.50
2023-04-24T08:15:06.989Z,18.53
2023-04-24T08:17:40.551Z,18.55
2023-04-24T08:20:16.678Z,18.55
2023-04-24T08:22:53.246Z,18.53
2023-04-24T08:25:27.018Z,18.60
2023-04-24T08:28:01.529Z,18.66
2023-04-24T08:30:34.344Z,18.74
2023-04-24T08:33:13.780Z,18.84
2023-04-24T08:35:48.607Z,18.94
2023-04-24T08:38:21.738Z,19.03
2023-04-24T08:40:56.392Z,19.15
2023-04-24T08:43:28.698Z,19.31
2023-04-24T08:46:19.993Z,19.47
2023-04-24T08:49:02.768Z,19.66
2023-04-24T08:51:38.950Z,19.83
2023-04-24T08:54:15.235Z,19.96
2023-04-24T08:56:50.878Z,20.08
2023-04-24T08:59:33.077Z,20.11
2023-04-24T09:02:07.295Z,20.07
2023-04-24T09:04:44.512Z,20.03
2023-04-24T09:07:19.759Z,20.05
2023-04-24T09:10:02.807Z,20.00
2023-04-24T09:12:39.512Z,19.96
2023-04-24T09:15:16.294Z,19.81
2023-04-24T09:17:58.371Z,19.64
2023-04-24T09:20:33.306Z,19.48
2023-04-24T09:23:13.444Z,19.41
2023-04-24T09:25:45.732Z,19.34
2023-04-24T09:28:29.477Z,19.29
2023-04-24T09:31:19.887Z,19.12
2023-04-24T09:34:04.033Z,18.93
2023-04-24T09:36:38.879Z,18.81
2023-04-24T09:39:17.271Z,18.65
2023-04-24T09:41:50.660Z,18.42
2023-04-24T09:44:26.901Z,18.23
2023-04-24T09:47:03.117Z,18.09
2023-04-24T09:49:37.836Z,17.97
2023-04-24T09:52:22.380Z,17.89
2023-04-24T09:55:01.811Z,17.83
2023-04-24T09:57:36.633Z,17.82
2023-04-24T10:00:19.377Z,17.78
2023-04-24T10:02:58.830Z,17.73
2023-04-24T10:05:38.982Z,17.75
2023-04-24T10:08:14.588Z,17.73
2023-04-24T10:10:52.442Z,17.72
2023-04-24T10:13:36.879Z,17.71
2023-04-24T10:16:15.103Z,17.67
2023-04-24T10:19:04.344Z,17.67
2023-04-24T10:21:46.705Z,17.58
2023-04-24T10:24:22.656Z,17.44
2023-04-24T10:26:58.808Z,17.36
2023-04-24T10:29:39.873Z,17.32
2023-04-24T10:32:12.032Z,17.29
2023-04-24T10:34:48.853Z,17.27
2023-04-24T10:37:22.086Z,17.22
2023-04-24T10:39:59.231Z,17.22
2023-04-24T10:42:44.318Z,17.22
2023-04-24T10:45:22.561Z,17.23
2023-04-24T10:48:00.553Z,17.28
2023-04-24T10:50:49.904Z,17.28
2023-04-24T10:53:24.474Z,17.23
2023-04-24T10:56:04.801Z,17.25
2023-04-24T10:58:53.568Z,17.27
2023-04-24T11:01:35.789Z,17.35
2023-04-24T11:04:12.822Z,17.46
2023-04-24T11:06:45.818Z,17.54
2023-04-24T11:09:21.508Z,17.60
2023-04-24T11:12:09.492Z,17.63
2023-04-24T11:15:04.391Z,17.69
2023-04-24T11:17:45.213Z,17.73
2023-04-24T11:20:28.568Z,17.78
2023-04-24T11:23:08.447Z,17.84
2023-04-24T11:25:46.200Z,17.92
2023-04-24T11:28:27.147Z,18.04
2023-04-24T11:31:21.369Z,18.15
2023-04-24T11:33:54.564Z,18.25
2023-04-24T11:36:33.078Z,18.38
2023-04-24T11:39:06.774Z,18.52
2023-04-24T11:41:37.462Z,18.65
2023-04-24T11:44:16.573Z,18.76
2023-04-24T11:46:51.296Z,18.90
2023-04-24T11:49:22.354Z,19.03
2023-04-24T11:52:01.125Z,19.14
2023-04-24T11:54:37.226Z,19.22
2023-04-24T11:57:09.086Z,19.33
2023-04-24T11:59:43.988Z,19.46
2023-04-24T12:02:28.042Z,19.58
2023-04-24T12:05:04.300Z,19.64
2023-04-24T12:07:47.260Z,19.71
2023-04-24T12:10:42.426Z,19.72
2023-04-24T12:13:17.345Z,19.77
2023-04-24T12:15:56.312Z,19.83
2023-04-24T12:18:32.554Z,19.87
2023-04-24T12:21:23.208Z,19.91
2023-04-24T12:24:01.545Z,19.99
2023-04-24T12:26:37.386Z,20.09
2023-04-24T12:29:15.169Z,20.15
2023-04-24T12:32:04.463Z,20.22
2023-04-24T12:34:37.807Z,20.29
2023-04-24T12:37:14.831Z,20.39
2023-04-24T12:40:04.312Z,20.49
2023-04-24T12:42:55.663Z,20.60
2023-04-24T12:45:44.640Z,20.69
2023-04-24T12:48:18.776Z,20.73
2023-04-24T12:50:53.039Z,20.74
2023-04-24T12:53:27.260Z,20.77
2023-04-24T12:56:05.226Z,20.76
2023-04-24T12:58:40.542Z,20.76
2023-04-24T13:01:16.550Z,20.78
2023-04-24T13:03:51.515Z,20.78
2023-04-24T13:06:26.977Z,20.76
2023-04-24T13:09:01.043Z,20.74
2023-04-24T13:11:41.630Z,20.69
2023-04-24T13:14:14.493Z,20.68
2023-04-24T13:16:48.783Z,20.73
2023-04-24T13:19:24.511Z,20.75
2023-04-24T13:21:59.817Z,20.76
2023-04-24T13:24:37.056Z,20.76
2023-04-24T13:27:13.644Z,20.77
2023-04-24T13:29:49.323Z,20.77
2023-04-24T13:32:23.700Z,20.78
2023-04-24T13:34:57.426Z,20.75
2023-04-24T13:37:37.038Z,20.73
2023-04-24T13:40:23.473Z,20.66
2023-04-24T13:42:57.749Z,20.65
2023-04-24T13:45:30.141Z,20.67
2023-04-24T13:48:09.841Z,20.73
2023-04-24T13:50:44.640Z,20.80
2023-04-24T13:53:20.158Z,20.85
2023-04-24T13:55:57.440Z,20.90
2023-04-24T13:58:30.341Z,20.91
2023-04-24T14:01:06.732Z,20.97
2023-04-24T14:03:42.573Z,20.97
2023-04-24T14:06:17.644Z,20.93
2023-04-24T14:09:12.298Z,20.90
2023-04-24T14:11:44.298Z,20.80
2023-04-24T14:14:18.474Z,20.68
2023-04-24T14:16:59.900Z,20.61
2023-04-24T14:19:32.761Z,20.61
2023-04-24T14:22:08.248Z,20.58
2023-04-24T14:24:44.634Z,20.58
2023-04-24T14:27:20.900Z,20.62
2023-04-24T14:30:02.221Z,20.69
2023-04-24T14:32:36.714Z,20.73
2023-04-24T14:35:14.250Z,20.74
2023-04-24T14:37:52.608Z,20.73
2023-04-24T14:43:25.416Z,20.75
2023-04-24T14:46:04.572Z,20.76
2023-04-24T14:48:36.588Z,20.75
2023-04-24T14:51:19.322Z,20.76
2023-04-24T14:53:56.187Z,20.78
2023-04-24T14:56:35.240Z,20.75
2023-04-24T14:59:07.441Z,20.69
2023-04-24T15:01:41.324Z,20.71
2023-04-24T15:04:16.400Z,20.75
2023-04-24T15:06:51.338Z,20.75
2023-04-24T15:09:32.977Z,20.74
2023-04-24T15:12:05.315Z,20.80
2023-04-24T15:14:38.922Z,20.81
2023-04-24T15:17:13.147Z,20.80
2023-04-24T15:19:49.070Z,20.78
2023-04-24T15:22:22.310Z,20.75
2023-04-24T15:24:55.301Z,20.77
2023-04-24T15:27:47.308Z,20.80
2023-04-24T15:30:22.179Z,20.80
2023-04-24T15:32:56.771Z,20.80
2023-04-24T15:35:39.625Z,20.77
2023-04-24T15:38:14.523Z,20.72
2023-04-24T15:40:49.044Z,20.70
2023-04-24T15:43:24.532Z,20.68
2023-04-24T15:45:58.304Z,20.65
2023-04-24T15:48:32.754Z,20.65
2023-04-24T15:51:04.619Z,20.66
2023-04-24T15:53:42.205Z,20.64
2023-04-24T15:56:15.128Z,20.62
2023-04-24T15:58:49.509Z,20.61
2023-04-24T16:01:26.853Z,20.63
2023-04-24T16:04:07.339Z,20.58
2023-04-24T16:06:44.202Z,20.51
2023-04-24T16:09:21.485Z,20.44
2023-04-24T16:11:54.058Z,20.40
2023-04-24T16:14:30.848Z,20.33
2023-04-24T16:17:04.506Z,20.30
2023-04-24T16:19:36.582Z,20.26
2023-04-24T16:22:14.969Z,20.16
2023-04-24T16:24:48.192Z,20.08
2023-04-24T16:27:20.445Z,20.01
2023-04-24T16:30:02.321Z,19.99
2023-04-24T16:32:36.073Z,19.92
2023-04-24T16:35:09.461Z,19.83
2023-04-24T16:37:42.721Z,19.74
2023-04-24T16:40:17.099Z,19.67
2023-04-24T16:42:48.755Z,19.63
2023-04-24T16:45:22.214Z,19.57
2023-04-24T16:47:54.842Z,19.52
2023-04-24T16:50:30.314Z,19.49
2023-04-24T16:53:09.578Z,19.45
2023-04-24T16:55:44.240Z,19.41
2023-04-24T16:58:17.076Z,19.33
2023-04-24T17:00:50.596Z,19.15
2023-04-24T17:03:24.296Z,18.95
2023-04-24T17:05:58.907Z,18.78
2023-04-24T17:08:31.007Z,18.62
2023-04-24T17:11:02.100Z,18.46
2023-04-24T17:13:36.342Z,18.27
2023-04-24T17:16:08.024Z,18.16
2023-04-24T17:18:39.807Z,18.00
2023-04-24T17:21:12.589Z,17.83
2023-04-24T17:23:45.377Z,17.76
2023-04-24T17:26:17.622Z,17.66
2023-04-24T17:28:50.765Z,17.53
2023-04-24T17:31:23.437Z,17.43
2023-04-24T17:33:55.568Z,17.35
2023-04-24T17:36:29.360Z,17.29
2023-04-24T17:39:02.768Z,17.22
2023-04-24T17:41:35.020Z,17.19
2023-04-24T17:44:08.116Z,17.10
2023-04-24T17:46:41.107Z,17.02
2023-04-24T17:49:13.183Z,16.97
2023-04-24T17:51:53.885Z,16.87
2023-04-24T17:54:28.457Z,16.83
2023-04-24T17:56:59.750Z,16.79
2023-04-24T17:59:32.019Z,16.73
2023-04-24T18:02:04.751Z,16.73
2023-04-24T18:04:39.420Z,16.71
2023-04-24T18:07:12.525Z,16.68
2023-04-24T18:09:44.515Z,16.73
2023-04-24T18:12:17.460Z,16.71
2023-04-24T18:14:50.450Z,16.73
2023-04-24T18:17:26.080Z,16.77
2023-04-24T18:19:59.278Z,16.77
2023-04-24T18:22:33.227Z,16.75
2023-04-24T18:25:08.669Z,16.73
2023-04-24T18:27:42.923Z,16.66
2023-04-24T18:30:16.550Z,16.63
2023-04-24T18:32:53.201Z,16.54
2023-04-24T18:35:25.982Z,16.52
2023-04-24T18:38:01.706Z,16.51
2023-04-24T18:40:33.411Z,16.48
2023-04-24T18:43:06.648Z,16.47
2023-04-24T18:45:39.021Z,16.47
2023-04-24T18:48:13.319Z,16.45
2023-04-24T18:50:46.371Z,16.44
2023-04-24T18:53:19.106Z,16.41
2023-04-24T18:55:52.925Z,16.37
2023-04-24T18:58:25.864Z,16.36
2023-04-24T19:00:58.597Z,16.33
2023-04-24T19:03:33.136Z,16.30
2023-04-24T19:06:07.846Z,16.27
2023-04-24T19:08:42.684Z,16.25
2023-04-24T19:11:15.287Z,16.23
2023-04-24T19:13:47.604Z,16.21
2023-04-24T19:16:20.154Z,16.18
2023-04-24T19:18:53.139Z,16.15
2023-04-24T19:21:23.630Z,16.12
2023-04-24T19:23:57.795Z,16.06
2023-04-24T19:26:31.138Z,15.98
2023-04-24T19:29:02.007Z,15.95
2023-04-24T19:31:34.034Z,15.92
2023-04-24T19:34:06.823Z,15.85
2023-04-24T19:36:39.008Z,15.84
2023-04-24T19:39:11.758Z,15.80
2023-04-24T19:41:44.180Z,15.69
2023-04-24T19:44:18.870Z,15.60
2023-04-24T19:46:51.813Z,15.48
2023-04-24T19:49:23.377Z,15.41
2023-04-24T19:51:55.534Z,15.39
2023-04-24T19:54:30.784Z,15.40
2023-04-24T19:57:04.083Z,15.41
2023-04-24T19:59:35.058Z,15.42
2023-04-24T20:02:07.565Z,15.41
2023-04-24T20:04:41.219Z,15.41
2023-04-24T20:07:17.871Z,15.39
2023-04-24T20:09:53.108Z,15.34
2023-04-24T20:12:25.794Z,15.26
2023-04-24T20:14:59.253Z,15.24
2023-04-24T20:17:32.938Z,15.19
2023-04-24T20:20:08.438Z,15.15
2023-04-24T20:22:40.473Z,15.15
2023-04-24T20:25:15.312Z,15.17
2023-04-24T20:27:49.237Z,15.18
2023-04-24T20:30:25.298Z,15.17
2023-04-24T20:32:57.944Z,15.10
2023-04-24T20:35:29.257Z,15.06
2023-04-24T20:38:03.090Z,15.03
2023-04-24T20:40:37.649Z,15.02
2023-04-24T20:43:12.711Z,14.96
2023-04-24T20:45:48.233Z,14.94
2023-04-24T20:48:21.392Z,14.93
2023-04-24T20:50:54.565Z,14.93
2023-04-24T20:53:28.786Z,14.93
2023-04-24T20:56:00.357Z,14.92
2023-04-24T20:58:31.029Z,14.93
2023-04-24T21:01:05.411Z,14.92
2023-04-24T21:03:38.720Z,14.85
2023-04-24T21:06:10.985Z,14.79
2023-04-24T21:08:45.345Z,14.75
2023-04-24T21:11:21.927Z,14.69
2023-04-24T21:13:54.767Z,14.61
2023-04-24T21:16:30.191Z,14.55
2023-04-24T21:19:03.060Z,14.47
2023-04-24T21:21:34.716Z,14.36
2023-04-24T21:24:06.666Z,14.32
2023-04-24T21:26:39.788Z,14.29
2023-04-24T21:29:17.027Z,14.25
2023-04-24T21:31:49.628Z,14.22
2023-04-24T21:34:21.362Z,14.25
2023-04-24T21:36:56.847Z,14.26
2023-04-24T21:39:31.336Z,14.25
2023-04-24T21:42:03.747Z,14.22
2023-04-24T21:44:34.644Z,14.20
2023-04-24T21:47:09.151Z,14.22
2023-04-24T21:49:43.730Z,14.21
2023-04-24T21:52:16.103Z,14.21
2023-04-24T21:54:50.717Z,14.19
2023-04-24T21:57:22.765Z,14.13
2023-04-24T21:59:56.703Z,14.07
2023-04-24T22:02:30.219Z,13.98
2023-04-24T22:05:25.460Z,13.91
2023-04-24T22:08:00.959Z,13.87
2023-04-24T22:10:33.727Z,13.86
2023-04-24T22:13:08.776Z,13.90
2023-04-24T22:15:45.379Z,13.92
2023-04-24T22:18:19.283Z,13.91
2023-04-24T22:20:51.474Z,13.89
2023-04-24T22:23:28.441Z,13.88
2023-04-24T22:26:01.729Z,13.86
2023-04-24T22:28:37.378Z,13.88
2023-04-24T22:31:11.044Z,13.89
2023-04-24T22:33:42.947Z,13.89
2023-04-24T22:36:16.460Z,13.88
2023-04-24T22:38:48.415Z,13.89
2023-04-24T22:41:21.321Z,13.89
2023-04-24T22:43:56.163Z,13.83
2023-04-24T22:46:28.271Z,13.77
2023-04-24T22:49:03.348Z,13.76
2023-04-24T22:51:37.816Z,13.73
2023-04-24T22:54:10.076Z,13.67
2023-04-24T22:56:41.898Z,13.57
2023-04-24T22:59:16.197Z,13.48
2023-04-24T23:01:49.060Z,13.46
2023-04-24T23:04:20.769Z,13.41
2023-04-24T23:06:54.291Z,13.41
2023-04-24T23:09:30.779Z,13.39
2023-04-24T23:12:02.951Z,13.36
2023-04-24T23:14:38.233Z,13.35
2023-04-24T23:17:12.466Z,13.33
2023-04-24T23:19:44.868Z,13.30
2023-04-24T23:22:21.854Z,13.27
2023-04-24T23:24:52.197Z,13.26
2023-04-24T23:27:23.638Z,13.27
2023-04-24T23:29:57.227Z,13.27
2023-04-24T23:32:29.478Z,13.27
2023-04-24T23:35:02.614Z,13.28
2023-04-24T23:37:40.167Z,13.29
2023-04-24T23:40:14.814Z,13.28
2023-04-24T23:43:05.604Z,13.26
2023-04-24T23:45:40.849Z,13.27
2023-04-24T23:48:15.036Z,13.27
2023-04-24T23:50:47.052Z,13.28
2023-04-24T23:53:20.552Z,13.29
2023-04-24T23:55:58.027Z,13.28
2023-04-24T23:58:34.139Z,13.25
